createdAt,value
2019-02-28T00:01:38.876Z,104.85
2019-02-28T00:04:08.389Z,99.25
2019-02-28T00:06:37.866Z,102.80
2019-02-28T00:09:10.372Z,94.10
2019-02-28T00:11:40.204Z,95.15
2019-02-28T00:14:09.933Z,97.05
2019-02-28T00:16:39.412Z,95.90
2019-02-28T00:19:08.825Z,95.37
2019-02-28T00:21:40.629Z,90.32
2019-02-28T00:24:09.393Z,97.53
2019-02-28T00:26:38.877Z,96.08
2019-02-28T00:29:09.474Z,95.92
2019-02-28T00:31:39.097Z,94.00
2019-02-28T00:34:08.561Z,85.90
2019-02-28T00:36:37.973Z,97.65
2019-02-28T00:39:07.835Z,90.05
2019-02-28T00:41:37.259Z,73.70
2019-02-28T00:44:06.691Z,89.25
2019-02-28T00:46:36.158Z,84.80
2019-02-28T00:49:05.593Z,87.82
2019-02-28T00:51:35.057Z,87.92
2019-02-28T00:54:04.495Z,89.75
2019-02-28T00:56:34.477Z,87.82
2019-02-28T00:59:03.937Z,89.25
2019-02-28T01:01:33.409Z,86.20
2019-02-28T01:04:02.849Z,79.97
2019-02-28T01:06:32.278Z,88.10
2019-02-28T01:09:01.712Z,93.30
2019-02-28T01:11:31.145Z,90.95
2019-02-28T01:14:01.599Z,97.53
2019-02-28T01:16:31.718Z,70.72
2019-02-28T01:19:01.131Z,92.92
2019-02-28T01:21:30.655Z,92.85
2019-02-28T01:24:00.866Z,91.90
2019-02-28T01:26:31.691Z,89.35
2019-02-28T01:29:01.901Z,88.25
2019-02-28T01:31:32.319Z,79.05
2019-02-28T01:34:01.764Z,88.47
2019-02-28T01:36:31.209Z,82.07
2019-02-28T01:39:00.664Z,89.15
2019-02-28T01:41:30.661Z,82.00
2019-02-28T01:44:01.707Z,90.22
2019-02-28T01:46:31.437Z,88.42
2019-02-28T01:49:00.764Z,81.30
2019-02-28T01:51:35.673Z,81.10
2019-02-28T01:54:01.423Z,84.97
2019-02-28T01:56:30.900Z,85.73
2019-02-28T01:59:00.452Z,80.38
2019-02-28T02:01:30.957Z,85.45
2019-02-28T02:04:01.165Z,78.22
2019-02-28T02:06:30.660Z,83.10
2019-02-28T02:09:00.106Z,80.87
2019-02-28T02:11:29.822Z,75.12
2019-02-28T02:13:59.300Z,85.12
2019-02-28T02:16:28.702Z,77.85
2019-02-28T02:18:58.223Z,85.25
2019-02-28T02:21:27.694Z,66.77
2019-02-28T02:23:57.127Z,74.77
2019-02-28T02:26:26.539Z,74.30
2019-02-28T02:29:00.867Z,72.85
2019-02-28T02:31:28.910Z,77.00
2019-02-28T02:33:58.373Z,77.07
2019-02-28T02:36:27.829Z,76.37
2019-02-28T02:38:57.240Z,73.25
2019-02-28T02:41:26.684Z,78.37
2019-02-28T02:43:56.079Z,75.17
2019-02-28T02:46:25.472Z,71.87
2019-02-28T02:48:54.908Z,78.30
2019-02-28T02:51:24.319Z,78.97
2019-02-28T02:53:53.768Z,76.55
2019-02-28T02:56:23.189Z,74.12
2019-02-28T02:58:52.620Z,65.70
2019-02-28T03:01:23.195Z,69.95
2019-02-28T03:03:53.266Z,70.08
2019-02-28T03:06:22.773Z,68.85
2019-02-28T03:08:52.376Z,66.22
2019-02-28T03:11:24.876Z,68.67
2019-02-28T03:13:52.905Z,69.72
2019-02-28T03:16:22.317Z,71.90
2019-02-28T03:18:56.875Z,68.28
2019-02-28T03:21:22.876Z,68.50
2019-02-28T03:23:52.323Z,71.15
2019-02-28T03:26:21.810Z,66.53
2019-02-28T03:28:51.288Z,61.63
2019-02-28T03:31:20.720Z,70.28
2019-02-28T03:33:50.166Z,72.53
2019-02-28T03:36:19.619Z,64.85
2019-02-28T03:38:50.067Z,72.83
2019-02-28T03:41:19.667Z,65.35
2019-02-28T03:43:49.094Z,69.20
2019-02-28T03:46:18.569Z,70.50
2019-02-28T03:48:48.040Z,67.45
2019-02-28T03:51:17.522Z,67.62
2019-02-28T03:53:47.046Z,61.80
2019-02-28T03:56:16.659Z,63.45
2019-02-28T03:58:46.080Z,57.75
2019-02-28T04:01:15.554Z,60.13
2019-02-28T04:03:45.360Z,61.00
2019-02-28T04:06:14.834Z,62.53
2019-02-28T04:08:44.239Z,62.60
2019-02-28T04:11:13.664Z,59.23
2019-02-28T04:13:43.123Z,55.92
2019-02-28T04:16:12.645Z,62.50
2019-02-28T04:18:46.240Z,61.83
2019-02-28T04:21:13.183Z,65.32
2019-02-28T04:23:42.680Z,54.88
2019-02-28T04:26:12.106Z,61.73
2019-02-28T04:28:41.583Z,59.48
2019-02-28T04:31:11.179Z,54.53
2019-02-28T04:33:40.665Z,57.38
2019-02-28T04:36:10.271Z,57.98
2019-02-28T04:38:39.735Z,56.70
2019-02-28T04:41:09.245Z,57.85
2019-02-28T04:43:41.574Z,55.60
2019-02-28T04:46:09.783Z,54.90
2019-02-28T04:48:39.251Z,53.13
2019-02-28T04:51:08.855Z,51.90
2019-02-28T04:53:38.287Z,57.55
2019-02-28T04:56:11.053Z,55.63
2019-02-28T04:58:38.875Z,56.08
2019-02-28T05:01:09.237Z,55.17
2019-02-28T05:03:39.361Z,53.83
2019-02-28T05:06:08.801Z,52.47
2019-02-28T05:08:38.877Z,54.88
2019-02-28T05:11:09.519Z,52.90
2019-02-28T05:13:41.096Z,54.35
2019-02-28T05:16:12.279Z,59.13
2019-02-28T05:18:41.125Z,56.58
2019-02-28T05:21:10.635Z,53.15
2019-02-28T05:23:40.117Z,53.78
2019-02-28T05:26:09.633Z,50.55
2019-02-28T05:28:41.189Z,52.67
2019-02-28T05:31:10.195Z,50.25
2019-02-28T05:33:42.085Z,53.87
2019-02-28T05:36:10.716Z,51.68
2019-02-28T05:38:40.162Z,53.42
2019-02-28T05:41:12.183Z,51.30
2019-02-28T05:43:40.677Z,53.83
2019-02-28T05:46:10.190Z,53.20
2019-02-28T05:48:39.705Z,50.67
2019-02-28T05:51:09.282Z,54.65
2019-02-28T05:53:41.340Z,56.90
2019-02-28T05:56:10.034Z,53.70
2019-02-28T05:58:39.550Z,53.35
2019-02-28T06:01:11.947Z,53.40
2019-02-28T06:03:40.616Z,47.88
2019-02-28T06:06:10.121Z,47.67
2019-02-28T06:08:40.048Z,49.37
2019-02-28T06:11:09.642Z,47.35
2019-02-28T06:13:39.071Z,48.28
2019-02-28T06:16:11.731Z,48.23
2019-02-28T06:18:39.765Z,39.23
2019-02-28T06:21:10.240Z,47.05
2019-02-28T06:23:40.750Z,45.90
2019-02-28T06:26:12.024Z,44.73
2019-02-28T06:28:41.522Z,43.87
2019-02-28T06:31:14.297Z,51.37
2019-02-28T06:33:42.098Z,44.23
2019-02-28T06:36:11.626Z,47.43
2019-02-28T06:38:41.072Z,49.13
2019-02-28T06:41:10.864Z,38.42
2019-02-28T06:43:40.406Z,43.92
2019-02-28T06:46:09.964Z,47.83
2019-02-28T06:48:39.446Z,45.33
2019-02-28T06:51:08.864Z,49.10
2019-02-28T06:53:40.132Z,43.65
2019-02-28T06:56:09.678Z,47.98
2019-02-28T06:58:39.162Z,37.10
2019-02-28T07:01:08.673Z,37.75
2019-02-28T07:03:38.910Z,46.95
2019-02-28T07:06:09.378Z,46.48
2019-02-28T07:08:38.892Z,44.90
2019-02-28T07:11:08.458Z,46.00
2019-02-28T07:13:40.021Z,46.42
2019-02-28T07:16:09.186Z,45.78
2019-02-28T07:18:38.922Z,39.92
2019-02-28T07:21:08.710Z,42.03
2019-02-28T07:23:38.444Z,35.92
2019-02-28T07:26:07.948Z,43.33
2019-02-28T07:28:37.658Z,31.75
2019-02-28T07:31:07.275Z,45.85
2019-02-28T07:33:36.711Z,46.42
2019-02-28T07:36:09.588Z,42.67
2019-02-28T07:38:37.451Z,43.93
2019-02-28T07:41:07.128Z,38.83
2019-02-28T07:43:36.800Z,43.35
2019-02-28T07:46:07.654Z,44.77
2019-02-28T07:48:37.598Z,43.08
2019-02-28T07:51:07.007Z,42.00
2019-02-28T07:53:36.638Z,40.63
2019-02-28T07:56:07.095Z,48.67
2019-02-28T07:58:37.406Z,46.70
2019-02-28T08:01:06.985Z,44.10
2019-02-28T08:03:36.467Z,40.83
2019-02-28T08:06:05.932Z,43.75
2019-02-28T08:08:35.381Z,45.98
2019-02-28T08:11:05.001Z,45.80
2019-02-28T08:13:37.688Z,51.13
2019-02-28T08:16:05.929Z,50.58
2019-02-28T08:18:35.417Z,54.38
2019-02-28T08:21:05.380Z,52.70
2019-02-28T08:23:37.457Z,46.90
2019-02-28T08:26:07.767Z,43.13
2019-02-28T08:28:37.326Z,45.65
2019-02-28T08:31:07.491Z,45.53
2019-02-28T08:33:37.118Z,42.55
2019-02-28T08:36:11.638Z,39.25
2019-02-28T08:38:37.782Z,41.60
2019-02-28T08:41:07.465Z,40.20
2019-02-28T08:43:37.003Z,39.10
2019-02-28T08:46:09.966Z,36.80
2019-02-28T08:48:37.663Z,42.03
2019-02-28T08:51:07.317Z,40.38
2019-02-28T08:53:36.778Z,38.53
2019-02-28T08:56:06.345Z,38.58
2019-02-28T08:58:37.767Z,38.23
2019-02-28T09:01:08.356Z,37.20
2019-02-28T09:03:37.848Z,34.15
2019-02-28T09:06:07.627Z,36.63
2019-02-28T09:08:37.089Z,36.13
2019-02-28T09:11:06.651Z,36.63
2019-02-28T09:13:36.233Z,30.30
2019-02-28T09:16:05.834Z,32.00
2019-02-28T09:18:35.385Z,32.60
2019-02-28T09:21:04.918Z,39.13
2019-02-28T09:23:37.667Z,36.10
2019-02-28T09:26:05.715Z,36.03
2019-02-28T09:28:35.305Z,36.50
2019-02-28T09:31:05.963Z,39.25
2019-02-28T09:33:35.563Z,40.25
2019-02-28T09:36:05.134Z,41.98
2019-02-28T09:38:34.709Z,37.30
2019-02-28T09:41:04.772Z,36.98
2019-02-28T09:43:34.882Z,43.10
2019-02-28T09:46:04.750Z,42.45
2019-02-28T09:48:37.225Z,39.80
2019-02-28T09:51:05.358Z,37.78
2019-02-28T09:53:34.952Z,52.20
2019-02-28T09:56:08.871Z,43.92
2019-02-28T09:58:36.078Z,46.50
2019-02-28T10:01:06.009Z,40.20
2019-02-28T10:03:35.832Z,41.53
2019-02-28T10:06:05.290Z,43.73
2019-02-28T10:08:36.910Z,45.48
2019-02-28T10:11:06.147Z,41.90
2019-02-28T10:13:35.543Z,42.93
2019-02-28T10:16:05.214Z,44.67
2019-02-28T10:18:35.521Z,49.42
2019-02-28T10:21:06.009Z,50.00
2019-02-28T10:23:35.522Z,52.30
2019-02-28T10:26:05.096Z,50.55
2019-02-28T10:28:34.777Z,46.95
2019-02-28T10:31:04.414Z,51.92
2019-02-28T10:33:33.879Z,52.15
2019-02-28T10:36:03.405Z,57.33
2019-02-28T10:38:33.944Z,55.20
2019-02-28T10:41:03.463Z,55.08
2019-02-28T10:43:34.679Z,50.38
2019-02-28T10:46:04.251Z,51.20
2019-02-28T10:48:35.246Z,49.38
2019-02-28T10:51:12.784Z,42.80
2019-02-28T10:53:39.363Z,51.80
2019-02-28T10:56:07.620Z,50.03
2019-02-28T10:58:37.167Z,54.80
2019-02-28T11:01:09.957Z,41.58
2019-02-28T11:03:39.536Z,49.18
2019-02-28T11:06:09.004Z,48.90
2019-02-28T11:08:38.547Z,50.43
2019-02-28T11:11:10.427Z,52.35
2019-02-28T11:13:39.941Z,50.73
2019-02-28T11:16:09.534Z,51.92
2019-02-28T11:18:41.891Z,32.93
2019-02-28T11:21:10.347Z,56.92
2019-02-28T11:23:39.831Z,57.05
2019-02-28T11:26:12.035Z,50.70
2019-02-28T11:28:41.627Z,50.08
2019-02-28T11:31:11.417Z,51.18
2019-02-28T11:33:41.026Z,50.13
2019-02-28T11:36:10.625Z,54.05
2019-02-28T11:38:40.305Z,52.13
2019-02-28T11:41:09.717Z,52.58
2019-02-28T11:43:39.440Z,48.50
2019-02-28T11:46:10.391Z,53.77
2019-02-28T11:48:39.951Z,53.80
2019-02-28T11:51:09.370Z,50.95
2019-02-28T11:53:40.263Z,51.10
2019-02-28T11:56:10.047Z,46.53
2019-02-28T11:58:39.501Z,44.95
2019-02-28T12:01:10.517Z,51.15
2019-02-28T12:03:40.012Z,50.23
2019-02-28T12:06:09.479Z,48.30
2019-02-28T12:08:41.474Z,37.40
2019-02-28T12:11:10.151Z,44.03
2019-02-28T12:13:39.632Z,41.85
2019-02-28T12:16:09.173Z,43.83
2019-02-28T12:18:39.983Z,45.73
2019-02-28T12:21:09.856Z,40.98
2019-02-28T12:23:39.310Z,44.40
2019-02-28T12:26:08.826Z,42.50
2019-02-28T12:28:39.163Z,44.30
2019-02-28T12:31:08.954Z,37.70
2019-02-28T12:33:38.494Z,43.45
2019-02-28T12:36:08.112Z,47.43
2019-02-28T12:38:37.575Z,45.40
2019-02-28T12:41:07.024Z,42.43
2019-02-28T12:43:36.490Z,45.35
2019-02-28T12:46:06.090Z,45.98
2019-02-28T12:48:35.576Z,47.78
2019-02-28T12:51:05.489Z,46.15
2019-02-28T12:53:35.526Z,41.70
2019-02-28T12:56:05.046Z,46.42
2019-02-28T12:58:38.871Z,46.60
2019-02-28T13:01:06.081Z,46.05
2019-02-28T13:03:35.499Z,45.58
2019-02-28T13:06:04.938Z,48.30
2019-02-28T13:08:34.376Z,47.50
2019-02-28T13:11:04.700Z,46.05
2019-02-28T13:13:34.531Z,49.37
2019-02-28T13:16:04.030Z,49.73
2019-02-28T13:18:33.476Z,47.45
2019-02-28T13:21:06.142Z,46.45
2019-02-28T13:23:34.138Z,47.90
2019-02-28T13:26:03.644Z,49.03
2019-02-28T13:28:33.126Z,50.17
2019-02-28T13:31:02.553Z,51.03
2019-02-28T13:33:31.973Z,54.18
2019-02-28T13:36:01.517Z,52.20
2019-02-28T13:38:30.959Z,51.27
2019-02-28T13:41:00.486Z,52.58
2019-02-28T13:43:31.964Z,51.48
2019-02-28T13:46:01.250Z,52.47
2019-02-28T13:48:33.891Z,51.08
2019-02-28T13:51:02.613Z,44.95
2019-02-28T13:53:32.849Z,46.02
2019-02-28T13:56:04.843Z,55.60
2019-02-28T13:58:33.543Z,54.23
2019-02-28T14:01:03.104Z,52.57
2019-02-28T14:03:32.692Z,53.33
2019-02-28T14:06:02.149Z,54.13
2019-02-28T14:08:31.907Z,56.63
2019-02-28T14:11:01.543Z,54.60
2019-02-28T14:13:34.748Z,48.87
2019-02-28T14:16:02.379Z,49.77
2019-02-28T14:18:31.970Z,46.02
2019-02-28T14:21:02.988Z,48.73
2019-02-28T14:23:32.637Z,46.58
2019-02-28T14:26:02.072Z,43.05
2019-02-28T14:28:32.367Z,45.75
2019-02-28T14:31:02.619Z,47.98
2019-02-28T14:33:32.145Z,47.95
2019-02-28T14:36:01.646Z,45.67
2019-02-28T14:38:32.985Z,47.15
2019-02-28T14:41:02.196Z,45.75
2019-02-28T14:43:31.637Z,49.80
2019-02-28T14:46:01.217Z,49.98
2019-02-28T14:48:30.781Z,49.57
2019-02-28T14:51:00.503Z,52.40
2019-02-28T14:53:30.107Z,50.30
2019-02-28T14:55:59.623Z,52.50
2019-02-28T14:58:29.041Z,56.98
2019-02-28T15:00:58.782Z,51.00
2019-02-28T15:03:28.217Z,40.80
2019-02-28T15:05:57.735Z,53.13
2019-02-28T15:08:27.247Z,46.73
2019-02-28T15:10:56.952Z,39.60
2019-02-28T15:13:26.594Z,41.33
2019-02-28T15:15:56.117Z,45.20
2019-02-28T15:18:25.725Z,46.50
2019-02-28T15:20:55.168Z,50.20
2019-02-28T15:23:24.724Z,44.23
2019-02-28T15:25:54.981Z,42.45
2019-02-28T15:28:24.518Z,48.28
2019-02-28T15:30:53.882Z,41.02
2019-02-28T15:33:23.408Z,41.18
2019-02-28T15:35:52.882Z,38.90
2019-02-28T15:38:22.293Z,43.45
2019-02-28T15:40:51.773Z,44.13
2019-02-28T15:43:22.422Z,40.08
2019-02-28T15:45:52.334Z,42.13
2019-02-28T15:48:21.840Z,44.13
2019-02-28T15:50:52.597Z,48.17
2019-02-28T15:53:22.127Z,74.03
2019-02-28T15:55:51.618Z,56.40
2019-02-28T15:58:21.146Z,57.17
2019-02-28T16:00:53.611Z,56.68
2019-02-28T16:03:21.877Z,64.80
2019-02-28T16:05:51.432Z,62.60
2019-02-28T16:08:21.015Z,68.02
2019-02-28T16:10:53.563Z,63.85
2019-02-28T16:13:22.676Z,64.22
2019-02-28T16:15:52.688Z,55.55
2019-02-28T16:18:22.215Z,49.35
2019-02-28T16:20:51.859Z,51.40
2019-02-28T16:23:23.572Z,48.30
2019-02-28T16:25:52.528Z,49.80
2019-02-28T16:28:22.007Z,48.87
2019-02-28T16:30:51.447Z,51.70
2019-02-28T16:33:24.909Z,47.70
2019-02-28T16:35:52.192Z,47.38
2019-02-28T16:38:21.606Z,50.70
2019-02-28T16:40:51.090Z,50.20
2019-02-28T16:43:21.584Z,51.80
2019-02-28T16:45:51.508Z,47.50
2019-02-28T16:48:21.315Z,44.13
2019-02-28T16:50:53.778Z,56.37
2019-02-28T16:53:23.735Z,47.27
2019-02-28T16:55:53.307Z,48.63
2019-02-28T16:58:23.038Z,50.03
2019-02-28T17:00:52.497Z,53.55
2019-02-28T17:03:21.913Z,48.45
2019-02-28T17:05:51.447Z,46.33
2019-02-28T17:08:20.891Z,48.98
2019-02-28T17:10:50.451Z,46.63
2019-02-28T17:13:25.987Z,49.53
2019-02-28T17:16:33.704Z,49.63
2019-02-28T17:19:03.715Z,51.33
2019-02-28T17:21:33.245Z,53.73
2019-02-28T17:24:02.736Z,57.50
2019-02-28T17:26:50.074Z,49.20
2019-02-28T17:29:39.693Z,51.90
2019-02-28T17:32:09.280Z,53.02
2019-02-28T17:34:38.760Z,48.78
2019-02-28T17:37:08.203Z,50.20
2019-02-28T17:39:37.702Z,44.67
2019-02-28T17:42:08.944Z,48.63
2019-02-28T17:45:16.283Z,46.75
2019-02-28T17:48:21.858Z,46.55
2019-02-28T17:51:15.020Z,47.15
2019-02-28T17:54:22.047Z,49.40
2019-02-28T17:57:48.861Z,49.50
2019-02-28T18:01:15.423Z,45.67
2019-02-28T18:04:08.230Z,46.73
2019-02-28T18:07:13.851Z,46.77
2019-02-28T18:10:11.985Z,46.68
2019-02-28T18:12:59.913Z,46.90
2019-02-28T18:15:50.103Z,50.23
2019-02-28T18:18:56.514Z,49.03
2019-02-28T18:22:19.032Z,56.08
2019-02-28T18:25:32.323Z,53.63
2019-02-28T18:28:12.173Z,55.17
2019-02-28T18:31:19.072Z,61.08
2019-02-28T18:34:11.254Z,57.58
2019-02-28T18:36:43.528Z,57.83
2019-02-28T18:39:12.420Z,59.15
2019-02-28T18:41:42.977Z,59.00
2019-02-28T18:44:12.664Z,59.55
2019-02-28T18:46:42.196Z,60.95
2019-02-28T18:49:11.716Z,60.52
2019-02-28T18:51:41.204Z,62.75
2019-02-28T18:54:10.658Z,68.60
2019-02-28T18:56:40.112Z,64.07
2019-02-28T18:59:09.655Z,63.08
2019-02-28T19:01:39.121Z,64.03
2019-02-28T19:04:08.606Z,65.00
2019-02-28T19:06:38.050Z,53.55
2019-02-28T19:09:19.822Z,38.38
2019-02-28T19:11:49.315Z,28.52
2019-02-28T19:14:18.999Z,17.97
2019-02-28T19:16:48.660Z,18.00
2019-02-28T19:19:18.176Z,12.93
2019-02-28T19:21:47.744Z,8.77
2019-02-28T19:24:17.123Z,9.70
2019-02-28T19:26:46.623Z,13.33
2019-02-28T19:29:16.167Z,7.83
2019-02-28T19:31:45.500Z,5.67
2019-02-28T19:34:14.953Z,6.27
2019-02-28T19:36:44.481Z,11.10
2019-02-28T19:39:13.826Z,8.57
2019-02-28T19:41:43.265Z,9.83
2019-02-28T19:44:12.748Z,11.03
2019-02-28T19:46:42.166Z,8.97
2019-02-28T19:49:11.616Z,7.57
2019-02-28T19:51:41.059Z,8.53
2019-02-28T19:54:10.680Z,7.73
2019-02-28T19:56:40.117Z,11.47
2019-02-28T19:59:09.537Z,6.27
2019-02-28T20:01:39.100Z,9.40
2019-02-28T20:04:08.663Z,5.17
2019-02-28T20:06:38.089Z,9.27
2019-02-28T20:09:08.983Z,13.20
2019-02-28T20:11:38.499Z,7.97
2019-02-28T20:14:07.946Z,6.90
2019-02-28T20:16:37.422Z,11.22
2019-02-28T20:19:06.913Z,10.45
2019-02-28T20:21:36.537Z,9.38
2019-02-28T20:24:07.747Z,7.58
2019-02-28T20:26:37.231Z,17.25
2019-02-28T20:29:06.743Z,15.88
2019-02-28T20:31:36.234Z,23.02
2019-02-28T20:34:05.734Z,16.48
2019-02-28T20:36:35.221Z,13.95
2019-02-28T20:39:06.469Z,12.80
2019-02-28T20:41:35.901Z,9.88
2019-02-28T20:44:05.459Z,11.28
2019-02-28T20:46:35.257Z,9.15
2019-02-28T20:49:04.683Z,7.05
2019-02-28T20:51:34.254Z,9.73
2019-02-28T20:54:03.757Z,8.48
2019-02-28T20:56:33.223Z,6.92
2019-02-28T20:59:02.824Z,7.12
2019-02-28T21:01:32.348Z,10.48
2019-02-28T21:04:01.813Z,9.80
2019-02-28T21:06:31.256Z,8.73
2019-02-28T21:09:00.672Z,7.97
2019-02-28T21:11:30.115Z,8.98
2019-02-28T21:13:59.606Z,10.20
2019-02-28T21:16:29.053Z,9.00
2019-02-28T21:18:58.600Z,9.20
2019-02-28T21:21:28.049Z,8.20
2019-02-28T21:23:57.525Z,9.68
2019-02-28T21:26:27.036Z,8.58
2019-02-28T21:28:56.518Z,10.85
2019-02-28T21:31:25.995Z,9.65
2019-02-28T21:33:55.480Z,8.45
2019-02-28T21:36:25.031Z,10.67
2019-02-28T21:38:54.565Z,8.10
2019-02-28T21:41:24.001Z,9.98
2019-02-28T21:43:53.459Z,9.03
2019-02-28T21:46:22.935Z,9.03
2019-02-28T21:48:52.376Z,9.20
2019-02-28T21:51:21.827Z,8.55
2019-02-28T21:53:51.316Z,10.85
2019-02-28T21:56:20.714Z,9.43
2019-02-28T21:58:50.155Z,8.48
2019-02-28T22:01:19.593Z,11.38
2019-02-28T22:03:49.060Z,10.43
2019-02-28T22:06:18.644Z,11.60
2019-02-28T22:08:48.312Z,13.45
2019-02-28T22:11:17.807Z,15.45
2019-02-28T22:13:47.337Z,18.42
2019-02-28T22:16:16.740Z,18.77
2019-02-28T22:18:46.188Z,17.27
2019-02-28T22:21:15.702Z,20.27
2019-02-28T22:23:45.142Z,19.15
2019-02-28T22:26:14.741Z,21.97
2019-02-28T22:28:44.202Z,20.23
2019-02-28T22:31:48.926Z,23.87
2019-02-28T22:34:32.342Z,22.63
2019-02-28T22:37:01.831Z,24.65
2019-02-28T22:39:31.270Z,29.82
2019-02-28T22:42:00.695Z,31.10
2019-02-28T22:44:30.150Z,34.13
2019-02-28T22:46:59.712Z,38.78
2019-02-28T22:49:29.160Z,36.15
2019-02-28T22:51:58.728Z,39.40
2019-02-28T22:54:28.149Z,43.60
2019-02-28T22:56:57.652Z,46.80
2019-02-28T22:59:27.246Z,50.63
2019-02-28T23:01:56.910Z,53.63
2019-02-28T23:04:26.396Z,58.70
2019-02-28T23:06:55.928Z,58.00
2019-02-28T23:09:25.501Z,60.05
2019-02-28T23:11:55.009Z,58.70
2019-02-28T23:14:24.575Z,60.60
2019-02-28T23:16:53.989Z,63.65
2019-02-28T23:19:23.421Z,62.05
2019-02-28T23:21:52.841Z,63.20
2019-02-28T23:24:22.442Z,69.58
2019-02-28T23:27:11.517Z,73.78
2019-02-28T23:30:01.376Z,79.50
2019-02-28T23:32:37.595Z,74.37
2019-02-28T23:35:11.020Z,72.72
2019-02-28T23:37:40.453Z,77.53
2019-02-28T23:40:09.964Z,72.82
2019-02-28T23:42:39.416Z,81.12
2019-02-28T23:45:08.940Z,84.25
2019-02-28T23:47:38.413Z,87.95
2019-02-28T23:50:09.215Z,84.72
2019-02-28T23:52:38.697Z,89.50
2019-02-28T23:55:08.431Z,82.85
2019-02-28T23:57:38.003Z,92.20
